Portada
METAR-TAF:

METAR-TAF

Aeroports :

Circuit de Zeltweg

Zeltweg, Àustria

latitud: 47-12N, longitud: 014-45E, altitud: 677 m

Observació

L'informe es va fer fa 1 hora i 3 minuts, a les 23:50 UTC
Vent calma
Temperatura -1°C
Humitat 74%
Pressió 1020 hPa

METAR: LOXZ 032350Z 00000KT 20KM FEW060SC BKN080SC M01/M05 Q1020

Hora: 02:53 (00:53 UTC)

Pronòstic

L'informe es va fer fa 13 hores i 38 minuts, a les 11:15 UTC
Pronòstic vàlid del 03 a les 12 UTC al 03 a les 21 UTC
Vent 8 kt del Est/Nord-Est
Visibilitat 10 km o més
Núvols disperses a una alçada de 8000 ft
Temporalment
l' 03 a les 12 UTC al 03 a les 16 UTC
Vent 12 kt del Oest/Nord-Oest
Escasses núvols a una alçada de 6000 ft
Cel ennuvolat a una alçada de 7500 ft

TAF: LOXZ 031115Z 0312/0321 07008KT 9999 SCT080 TEMPO 0312/0316 30012KT FEW060 BKN075

Observacions i pronòstics meteorològics de més de 4000 aeroports (METAR i TAF).

Les estacions disponibles són els punts grocs i vermells al mapa.

Posi el ratolí al punt desitjat per veure el nom de l'estació.

Feu clic per veure les observacions i els pronòstics meteorològics.

Per canviar el mapa: feu clic els botons verds amb una creu de color negre per apropar; al botó verd amb un guió per allunyar la imatge; o en les fletxes verdes per a mapes adjacents.


METAR-TAF: